Portada
METAR-TAF:

METAR-TAF

Aeroports :

Emmen, Suïssa

latitud: 47-05-32N, longitud: 8-18-16E, altitud: 426 m

Observació

L'informe es va fer fa 38 minuts, a les 08:20 UTC
Vent 3 kt del Est/Nord-Est, variant entre Nord i Sud-Est
Temperatura 25°C
Humitat 61%
Pressió 1022 hPa
Visibilitat: 4600 m

METAR: LSME 230820Z AUTO 07003KT 360V140 4600NDV NCD 25/17 Q1022 RMK

Hora: 10:58 (08:58 UTC)


TAF: manca

Observacions i pronòstics meteorològics de més de 4000 aeroports (METAR i TAF).

Les estacions disponibles són els punts grocs i vermells al mapa.

Posi el ratolí al punt desitjat per veure el nom de l'estació.

Feu clic per veure les observacions i els pronòstics meteorològics.

Per canviar el mapa: feu clic els botons verds amb una creu de color negre per apropar; al botó verd amb un guió per allunyar la imatge; o en les fletxes verdes per a mapes adjacents.


METAR-TAF: